Time;durP1;ratioP1;P1;durP2;ratioP2;P2;SDS_P1;SDS_P2;PMS_P1;PMS_P2;Temp;Humidity;BMP_temperature;BMP_pressure;BME280_temperature;BME280_humidity;BME280_pressure;Samples;Min_cycle;Max_cycle;Signal;HPM_P1;HPM_P2
2021/07/11 00:00:24;;;;;;;2.30;1.63;;;;;;;;;;5114588;28;20499;-70
2021/07/11 00:02:50;;;;;;;4.38;2.10;;;;;;;;;;5114307;28;20046;-70
2021/07/11 00:05:17;;;;;;;6.25;1.73;;;;;;;;;;5114296;28;20024;-70
2021/07/11 00:07:43;;;;;;;6.85;1.95;;;;;;;;;;5114396;28;20051;-70
2021/07/11 00:10:10;;;;;;;2.78;1.90;;;;;;;;;;5114133;28;20023;-70
2021/07/11 00:12:37;;;;;;;7.50;2.17;;;;;;;;;;5113843;28;20033;-70
2021/07/11 00:15:04;;;;;;;2.72;1.80;;;;;;;;;;5114104;28;20051;-70
2021/07/11 00:17:30;;;;;;;2.90;1.90;;;;;;;;;;5114211;28;20023;-70
2021/07/11 00:19:56;;;;;;;3.47;1.75;;;;;;;;;;5113970;27;20027;-70
2021/07/11 00:22:22;;;;;;;2.88;1.90;;;;;;;;;;5114256;28;20046;-70
2021/07/11 00:24:50;;;;;;;3.45;1.85;;;;;;;;;;5113868;28;20034;-70
2021/07/11 00:27:16;;;;;;;5.55;1.90;;;;;;;;;;5113653;28;20701;-70
2021/07/11 00:29:42;;;;;;;3.13;1.90;;;;;;;;;;5113670;28;20027;-70
2021/07/11 00:32:08;;;;;;;9.23;2.00;;;;;;;;;;5113442;28;20027;-70
2021/07/11 00:34:35;;;;;;;2.35;2.03;;;;;;;;;;5112554;28;20471;-70
2021/07/11 00:37:01;;;;;;;5.28;2.00;;;;;;;;;;5113817;27;20384;-70
2021/07/11 00:39:27;;;;;;;5.30;1.75;;;;;;;;;;5113420;28;20617;-71
2021/07/11 00:41:53;;;;;;;3.85;1.80;;;;;;;;;;5113037;28;20533;-70
2021/07/11 00:44:19;;;;;;;4.20;2.00;;;;;;;;;;5113341;28;20045;-70
2021/07/11 00:46:47;;;;;;;3.05;1.92;;;;;;;;;;5113652;28;20015;-70
2021/07/11 00:49:15;;;;;;;7.13;1.95;;;;;;;;;;5113591;28;20038;-70
2021/07/11 00:51:41;;;;;;;7.25;1.80;;;;;;;;;;5113690;28;20024;-70
2021/07/11 00:54:07;;;;;;;2.63;2.10;;;;;;;;;;5113661;28;20084;-70
2021/07/11 00:56:33;;;;;;;5.47;2.45;;;;;;;;;;5113373;28;20073;-70
2021/07/11 00:58:59;;;;;;;6.22;2.05;;;;;;;;;;5111121;28;20069;-70
2021/07/11 01:01:37;;;;;;;4.47;1.90;;;;;;;;;;5110938;28;20129;-71
2021/07/11 01:04:08;;;;;;;3.78;1.90;;;;;;;;;;5111969;28;20042;-70
2021/07/11 01:06:36;;;;;;;3.33;1.90;;;;;;;;;;5117281;28;20441;-69
2021/07/11 01:09:05;;;;;;;3.35;1.88;;;;;;;;;;5117547;28;20027;-70
2021/07/11 01:11:43;;;;;;;;;;;;;;;;;;;;;
2021/07/11 01:14:09;;;;;;;2.33;1.90;;;;;;;;;;5117269;28;20464;-70
2021/07/11 01:16:36;;;;;;;6.82;2.13;;;;;;;;;;5117199;28;20104;-70
2021/07/11 01:19:10;;;;;;;2.45;1.77;;;;;;;;;;5117358;28;20045;-70
2021/07/11 01:21:38;;;;;;;2.55;1.92;;;;;;;;;;5117226;28;20376;-70
2021/07/11 01:24:11;;;;;;;4.55;2.10;;;;;;;;;;5117102;28;20023;-70
2021/07/11 01:26:38;;;;;;;3.05;2.00;;;;;;;;;;5117109;28;20024;-70
2021/07/11 01:29:05;;;;;;;2.75;2.10;;;;;;;;;;5117135;28;20566;-70
2021/07/11 01:31:31;;;;;;;4.20;2.00;;;;;;;;;;5117158;28;20491;-70
2021/07/11 01:33:57;;;;;;;3.63;1.90;;;;;;;;;;5117071;28;20039;-70
2021/07/11 01:36:23;;;;;;;4.05;1.95;;;;;;;;;;5116909;28;20024;-70
2021/07/11 01:38:51;;;;;;;3.53;1.90;;;;;;;;;;5117059;28;20054;-70
2021/07/11 01:41:17;;;;;;;2.17;1.60;;;;;;;;;;5117072;28;20385;-70
2021/07/11 01:43:45;;;;;;;3.20;1.65;;;;;;;;;;5116569;28;20027;-70
2021/07/11 01:46:12;;;;;;;2.97;1.73;;;;;;;;;;5116641;28;20051;-70
2021/07/11 01:48:38;;;;;;;3.13;1.85;;;;;;;;;;5116840;28;20412;-70
2021/07/11 01:51:04;;;;;;;2.90;2.05;;;;;;;;;;5116445;28;20019;-70
2021/07/11 01:53:36;;;;;;;2.47;1.60;;;;;;;;;;5116924;28;20036;-70
2021/07/11 01:56:06;;;;;;;6.05;1.60;;;;;;;;;;5116481;27;20035;-70
2021/07/11 01:58:32;;;;;;;4.63;1.60;;;;;;;;;;5116468;28;20031;-70
2021/07/11 02:00:58;;;;;;;2.60;2.10;;;;;;;;;;5116461;28;20062;-70
2021/07/11 02:03:25;;;;;;;3.00;1.92;;;;;;;;;;5116676;28;20031;-70
2021/07/11 02:05:52;;;;;;;3.70;1.70;;;;;;;;;;5116789;28;20035;-70
2021/07/11 02:08:19;;;;;;;3.05;1.63;;;;;;;;;;5116537;28;20085;-70
2021/07/11 02:10:46;;;;;;;4.53;1.80;;;;;;;;;;5116602;28;20020;-71
2021/07/11 02:13:14;;;;;;;2.55;1.80;;;;;;;;;;5116618;28;20035;-70
2021/07/11 02:15:46;;;;;;;4.88;1.90;;;;;;;;;;5115773;27;20400;-70
2021/07/11 02:18:13;;;;;;;2.05;1.67;;;;;;;;;;5116636;28;20031;-70
2021/07/11 02:20:40;;;;;;;2.45;1.67;;;;;;;;;;5116451;28;21060;-70
2021/07/11 02:23:06;;;;;;;3.72;1.60;;;;;;;;;;5116316;28;20636;-70
2021/07/11 02:25:32;;;;;;;1.70;1.60;;;;;;;;;;5116280;28;20034;-70
2021/07/11 02:27:59;;;;;;;3.97;1.77;;;;;;;;;;5116255;28;20034;-70
2021/07/11 02:30:28;;;;;;;3.53;1.85;;;;;;;;;;5115987;28;20032;-70
2021/07/11 02:32:56;;;;;;;8.70;2.00;;;;;;;;;;5115890;28;20032;-70
2021/07/11 02:35:39;;;;;;;7.35;2.15;;;;;;;;;;5116251;28;20038;-70
2021/07/11 02:38:05;;;;;;;3.53;2.00;;;;;;;;;;5116044;28;20020;-70
2021/07/11 02:40:35;;;;;;;5.40;2.22;;;;;;;;;;5115924;28;20024;-69
2021/07/11 02:43:02;;;;;;;3.33;2.00;;;;;;;;;;5116064;28;20468;-70
2021/07/11 02:45:29;;;;;;;4.10;2.20;;;;;;;;;;5115728;28;20026;-70
2021/07/11 02:47:59;;;;;;;3.75;2.45;;;;;;;;;;5116007;28;20476;-70
2021/07/11 02:50:26;;;;;;;5.55;2.08;;;;;;;;;;5115831;27;20051;-69
2021/07/11 02:52:53;;;;;;;2.63;2.20;;;;;;;;;;5115827;28;20067;-70
2021/07/11 02:55:22;;;;;;;3.67;2.40;;;;;;;;;;5115571;28;20020;-70
2021/07/11 02:57:51;;;;;;;7.88;2.40;;;;;;;;;;5115729;28;20478;-70
2021/07/11 03:00:18;;;;;;;2.53;2.30;;;;;;;;;;5115544;28;20020;-70
2021/07/11 03:02:44;;;;;;;2.42;2.05;;;;;;;;;;5115540;28;20047;-70
2021/07/11 03:05:12;;;;;;;6.15;2.25;;;;;;;;;;5115592;28;20073;-70
2021/07/11 03:07:39;;;;;;;3.22;2.13;;;;;;;;;;5115509;28;20027;-70
2021/07/11 03:10:06;;;;;;;4.22;2.60;;;;;;;;;;5115337;28;20068;-70
2021/07/11 03:12:32;;;;;;;4.07;2.47;;;;;;;;;;5115050;28;20020;-70
2021/07/11 03:14:59;;;;;;;5.78;2.67;;;;;;;;;;5115237;28;20046;-70
2021/07/11 03:17:25;;;;;;;4.13;2.40;;;;;;;;;;5114969;28;20024;-70
2021/07/11 03:19:53;;;;;;;4.35;2.60;;;;;;;;;;5115451;28;20027;-70
2021/07/11 03:22:29;;;;;;;4.03;2.20;;;;;;;;;;5115019;28;20034;-70
2021/07/11 03:24:59;;;;;;;4.78;2.40;;;;;;;;;;5115315;28;20024;-70
2021/07/11 03:27:28;;;;;;;5.10;2.33;;;;;;;;;;5114383;28;20483;-70
2021/07/11 03:30:04;;;;;;;5.15;2.53;;;;;;;;;;5114820;28;20022;-70
2021/07/11 03:32:36;;;;;;;5.30;2.20;;;;;;;;;;5114990;28;20566;-69
2021/07/11 03:35:03;;;;;;;4.65;2.40;;;;;;;;;;5114994;28;20032;-69
2021/07/11 03:37:30;;;;;;;2.70;2.20;;;;;;;;;;5114966;28;20019;-69
2021/07/11 03:39:56;;;;;;;3.47;1.88;;;;;;;;;;5115000;28;20443;-69
2021/07/11 03:42:24;;;;;;;3.10;1.90;;;;;;;;;;5114625;28;20051;-70
2021/07/11 03:44:53;;;;;;;4.70;1.80;;;;;;;;;;5114619;28;20020;-70
2021/07/11 03:47:20;;;;;;;2.03;1.70;;;;;;;;;;5114613;28;20051;-70
2021/07/11 03:49:49;;;;;;;3.92;1.70;;;;;;;;;;5114494;28;20019;-70
2021/07/11 03:52:17;;;;;;;3.40;1.67;;;;;;;;;;5114443;28;20028;-69
2021/07/11 03:54:44;;;;;;;3.25;1.70;;;;;;;;;;5114213;28;20028;-70
2021/07/11 03:57:10;;;;;;;4.82;1.70;;;;;;;;;;5114415;28;20395;-70
2021/07/11 03:59:39;;;;;;;7.75;1.73;;;;;;;;;;5114312;28;20081;-70
2021/07/11 04:02:07;;;;;;;5.55;1.67;;;;;;;;;;5113426;28;20024;-70
2021/07/11 04:04:33;;;;;;;3.40;1.90;;;;;;;;;;5112335;28;20028;-70
2021/07/11 04:07:00;;;;;;;2.65;1.67;;;;;;;;;;5113350;28;20050;-70
2021/07/11 04:09:27;;;;;;;2.70;1.80;;;;;;;;;;5113234;28;20023;-70
2021/07/11 04:11:53;;;;;;;3.83;1.98;;;;;;;;;;5112981;28;20020;-70
2021/07/11 04:14:20;;;;;;;4.80;2.10;;;;;;;;;;5113524;28;20043;-70
2021/07/11 04:16:48;;;;;;;1.70;1.52;;;;;;;;;;5113056;28;20050;-70
2021/07/11 04:19:20;;;;;;;5.63;1.88;;;;;;;;;;5113051;28;20023;-70
2021/07/11 04:21:47;;;;;;;3.53;1.70;;;;;;;;;;5113419;28;20057;-70
2021/07/11 04:24:13;;;;;;;3.22;2.10;;;;;;;;;;5112479;28;20477;-70
2021/07/11 04:26:45;;;;;;;2.42;1.60;;;;;;;;;;5113499;28;20028;-70
2021/07/11 04:29:12;;;;;;;3.13;1.70;;;;;;;;;;5113107;28;20081;-71
2021/07/11 04:31:38;;;;;;;2.75;1.60;;;;;;;;;;5113324;28;20104;-71
2021/07/11 04:34:10;;;;;;;10.43;1.50;;;;;;;;;;5109659;28;20483;-71
2021/07/11 04:36:36;;;;;;;5.72;1.95;;;;;;;;;;5111204;28;20023;-72
2021/07/11 04:39:02;;;;;;;4.65;1.90;;;;;;;;;;5112033;28;20032;-71
2021/07/11 04:41:28;;;;;;;4.82;1.80;;;;;;;;;;5113896;28;20024;-72
2021/07/11 04:44:02;;;;;;;4.90;1.75;;;;;;;;;;5113552;28;20026;-71
2021/07/11 04:46:30;;;;;;;5.35;1.75;;;;;;;;;;5113455;28;20476;-71
2021/07/11 04:48:56;;;;;;;4.53;1.80;;;;;;;;;;5113551;28;20479;-71
2021/07/11 04:51:23;;;;;;;2.58;1.60;;;;;;;;;;5113585;28;20430;-72
2021/07/11 04:53:49;;;;;;;3.72;2.08;;;;;;;;;;5113470;28;20039;-71
2021/07/11 04:56:15;;;;;;;6.50;1.75;;;25.50;54.40;;;;;;5113764;28;20051;-66
2021/07/11 04:58:41;;;;;;;5.60;1.90;;;24.60;56.50;;;;;;5111894;28;20066;-67
2021/07/11 05:01:08;;;;;;;4.07;1.77;;;24.50;56.40;;;;;;5110632;28;20019;-67
2021/07/11 05:03:34;;;;;;;6.88;1.70;;;24.50;56.70;;;;;;5110692;28;20488;-68
2021/07/11 05:06:00;;;;;;;2.67;1.80;;;24.50;56.50;;;;;;5113047;28;20027;-67
2021/07/11 05:08:28;;;;;;;4.57;1.52;;;24.50;56.50;;;;;;5113283;28;20073;-67
2021/07/11 05:10:53;;;;;;;2.00;1.60;;;24.60;56.90;;;;;;5113432;28;20468;-67
2021/07/11 05:13:19;;;;;;;5.57;1.80;;;24.60;56.90;;;;;;5113007;28;20252;-67
2021/07/11 05:15:45;;;;;;;4.78;1.80;;;24.60;56.80;;;;;;5112785;28;20423;-67
2021/07/11 05:18:10;;;;;;;6.13;2.00;;;24.60;57.00;;;;;;5112851;28;20023;-67
2021/07/11 05:20:36;;;;;;;7.93;1.83;;;24.60;57.00;;;;;;5112919;28;20478;-67
2021/07/11 05:23:04;;;;;;;3.05;1.70;;;24.60;57.30;;;;;;5112552;28;20016;-66
2021/07/11 05:25:32;;;;;;;4.25;1.90;;;24.70;57.10;;;;;;5111870;28;20111;-67
2021/07/11 05:27:59;;;;;;;3.33;1.60;;;24.70;56.60;;;;;;5109136;28;20379;-67
2021/07/11 05:30:25;;;;;;;4.50;1.70;;;24.70;56.20;;;;;;5110654;28;20016;-66
2021/07/11 05:32:51;;;;;;;2.95;1.73;;;24.80;56.60;;;;;;5110657;28;20034;-67
2021/07/11 05:35:16;;;;;;;3.35;1.60;;;24.80;56.60;;;;;;5111061;28;20096;-66
2021/07/11 05:37:42;;;;;;;4.57;2.05;;;24.80;56.70;;;;;;5111716;28;20069;-66
2021/07/11 05:40:08;;;;;;;4.28;2.00;;;24.80;57.20;;;;;;5111915;28;20118;-67
2021/07/11 05:42:36;;;;;;;1.95;1.80;;;24.90;57.40;;;;;;5112661;28;20543;-67
2021/07/11 05:45:03;;;;;;;4.07;2.00;;;24.90;57.50;;;;;;5113096;28;20031;-66
2021/07/11 05:47:29;;;;;;;5.47;1.88;;;24.90;57.70;;;;;;5112904;28;20108;-67
2021/07/11 05:49:54;;;;;;;2.85;1.70;;;24.90;57.30;;;;;;5113505;28;20055;-66
2021/07/11 05:52:23;;;;;;;3.55;1.67;;;25.00;57.20;;;;;;5116369;28;20616;-66
2021/07/11 05:54:49;;;;;;;4.18;1.73;;;25.00;56.50;;;;;;5117176;28;20365;-66
2021/07/11 05:57:15;;;;;;;4.60;2.20;;;25.00;56.40;;;;;;5117139;28;20047;-67
2021/07/11 05:59:41;;;;;;;5.07;1.73;;;25.00;56.90;;;;;;5116495;28;20472;-67
2021/07/11 06:02:07;;;;;;;6.28;1.80;;;25.10;57.10;;;;;;5116662;28;20023;-67
2021/07/11 06:04:32;;;;;;;3.53;1.60;;;25.10;57.30;;;;;;5116581;28;20480;-66
2021/07/11 06:06:58;;;;;;;6.40;2.15;;;25.10;57.60;;;;;;5116443;28;20028;-66
2021/07/11 06:09:23;;;;;;;4.22;1.92;;;25.10;57.70;;;;;;5116748;28;20023;-66
2021/07/11 06:11:49;;;;;;;1.60;1.30;;;25.20;58.00;;;;;;5116593;28;20384;-67
2021/07/11 06:14:15;;;;;;;3.47;1.60;;;25.20;57.60;;;;;;5116373;28;20448;-66
2021/07/11 06:16:41;;;;;;;3.85;1.60;;;25.20;57.30;;;;;;5116550;28;20058;-66
2021/07/11 06:19:07;;;;;;;3.33;1.70;;;25.30;57.40;;;;;;5116651;28;20032;-67
2021/07/11 06:21:32;;;;;;;4.28;1.75;;;25.30;57.20;;;;;;5116346;28;20470;-66
2021/07/11 06:24:01;;;;;;;3.20;1.80;;;25.40;57.30;;;;;;5116330;28;20024;-67
2021/07/11 06:26:27;;;;;;;4.80;1.65;;;25.50;57.10;;;;;;5116361;28;20062;-67
2021/07/11 06:28:53;;;;;;;5.30;1.30;;;25.50;57.00;;;;;;5116430;28;20429;-66
2021/07/11 06:31:18;;;;;;;1.75;1.30;;;25.50;56.50;;;;;;5116354;28;20035;-67
2021/07/11 06:33:44;;;;;;;1.88;1.17;;;25.50;55.80;;;;;;5116104;28;20063;-67
2021/07/11 06:36:09;;;;;;;1.92;1.60;;;25.60;55.40;;;;;;5115966;28;20024;-67
2021/07/11 06:38:36;;;;;;;2.17;1.50;;;25.60;55.30;;;;;;5116107;28;20065;-66
2021/07/11 06:41:02;;;;;;;2.42;1.38;;;25.70;55.30;;;;;;5116250;28;20068;-67
2021/07/11 06:43:27;;;;;;;2.83;1.20;;;25.80;55.20;;;;;;5116540;28;20028;-67
2021/07/11 06:45:53;;;;;;;3.53;1.40;;;25.80;54.80;;;;;;5115919;28;20094;-66
2021/07/11 06:48:19;;;;;;;4.43;1.60;;;25.80;54.40;;;;;;5115777;28;20046;-66
2021/07/11 06:50:45;;;;;;;2.67;1.20;;;25.90;54.30;;;;;;5115968;28;20024;-67
2021/07/11 06:53:11;;;;;;;3.03;1.05;;;25.90;54.30;;;;;;5115969;28;20039;-67
2021/07/11 06:55:37;;;;;;;5.53;1.10;;;26.00;53.60;;;;;;5115764;28;20028;-66
2021/07/11 06:58:03;;;;;;;5.35;1.20;;;26.10;52.00;;;;;;5115908;28;20031;-66
2021/07/11 07:00:29;;;;;;;1.55;1.23;;;26.10;51.60;;;;;;5115761;28;20023;-66
2021/07/11 07:02:54;;;;;;;4.28;1.20;;;26.20;51.50;;;;;;5114318;28;20035;-67
2021/07/11 07:05:21;;;;;;;8.68;1.10;;;26.20;51.20;;;;;;5115402;28;20019;-67
2021/07/11 07:07:47;;;;;;;6.25;1.20;;;26.30;51.40;;;;;;5114367;28;20039;-67
2021/07/11 07:10:14;;;;;;;2.10;1.20;;;;;;;;;;5112878;28;20846;-67
2021/07/11 07:12:44;;;;;;;3.70;1.70;;;;;;;;;;5112627;28;20308;-68
2021/07/11 07:15:10;;;;;;;2.47;1.30;;;;;;;;;;5115076;27;20038;-67
2021/07/11 07:17:36;;;;;;;1.95;1.02;;;;;;;;;;5115497;28;20028;-66
2021/07/11 07:20:06;;;;;;;4.22;1.00;;;26.40;51.40;;;;;;5115480;27;20423;-67
2021/07/11 07:22:35;;;;;;;2.75;0.82;;;26.60;50.50;;;;;;5115009;28;20028;-67
2021/07/11 07:25:03;;;;;;;1.30;1.10;;;26.70;50.00;;;;;;5114924;28;20020;-66
2021/07/11 07:27:29;;;;;;;3.85;1.30;;;;;;;;;;5115032;28;20085;-66
2021/07/11 07:29:56;;;;;;;3.78;1.08;;;;;;;;;;5115099;28;20039;-68
2021/07/11 07:32:22;;;;;;;3.40;0.98;;;;;;;;;;5114688;28;20055;-68
2021/07/11 07:34:58;;;;;;;;;;;;;;;;;;;;;
2021/07/11 07:37:24;;;;;;;1.75;0.95;;;;;;;;;;5112074;28;20039;-66
2021/07/11 07:39:51;;;;;;;4.90;1.02;;;;;;;;;;5113422;28;20028;-67
2021/07/11 07:42:17;;;;;;;4.15;1.10;;;;;;;;;;5113186;28;20426;-68
2021/07/11 07:44:43;;;;;;;2.13;1.10;;;;;;;;;;5114397;28;20460;-66
2021/07/11 07:47:09;;;;;;;2.95;1.10;;;;;;;;;;5114586;28;20026;-67
2021/07/11 07:49:35;;;;;;;2.25;0.90;;;;;;;;;;5114311;28;20483;-67
2021/07/11 07:52:01;;;;;;;2.33;0.93;;;;;;;;;;5114777;27;20035;-66
2021/07/11 07:54:27;;;;;;;3.78;1.05;;;;;;;;;;5114422;28;20572;-66
2021/07/11 07:56:53;;;;;;;2.92;0.95;;;;;;;;;;5114330;28;20475;-67
2021/07/11 07:59:19;;;;;;;5.15;0.90;;;;;;;;;;5114356;28;20365;-67
2021/07/11 08:01:45;;;;;;;2.25;1.00;;;;;;;;;;5114602;28;20034;-67
2021/07/11 08:04:11;;;;;;;2.33;0.82;;;;;;;;;;5113649;28;20019;-66
2021/07/11 08:06:38;;;;;;;1.98;1.00;;;;;;;;;;5114334;28;20095;-67
2021/07/11 08:09:04;;;;;;;1.15;0.80;;;;;;;;;;5114190;28;20448;-67
2021/07/11 08:11:34;;;;;;;2.45;1.00;;;;;;;;;;5113824;28;20032;-68
2021/07/11 08:14:00;;;;;;;4.47;1.00;;;;;;;;;;5113523;28;20032;-68
2021/07/11 08:16:28;;;;;;;2.67;0.95;;;;;;;;;;5113944;28;20119;-68
2021/07/11 08:18:54;;;;;;;3.42;0.90;;;;;;;;;;5113812;28;20110;-69
2021/07/11 08:21:21;;;;;;;6.63;1.00;;;;;;;;;;5114173;28;20072;-68
2021/07/11 08:23:48;;;;;;;5.15;1.10;;;;;;;;;;5113974;28;20494;-69
2021/07/11 08:26:14;;;;;;;1.75;0.73;;;;;;;;;;5112377;28;20024;-68
2021/07/11 08:28:40;;;;;;;2.60;0.90;;;;;;;;;;5113216;28;20019;-67
2021/07/11 08:31:06;;;;;;;2.35;0.82;;;;;;;;;;5113731;28;20020;-66
2021/07/11 08:33:32;;;;;;;4.35;0.85;;;;;;;;;;5113195;28;20035;-66
2021/07/11 08:35:59;;;;;;;5.05;1.00;;;;;;;;;;5113418;28;20028;-66
2021/07/11 08:38:25;;;;;;;5.53;0.90;;;;;;;;;;5113598;28;20106;-65
2021/07/11 08:40:51;;;;;;;2.95;0.98;;;;;;;;;;5114003;28;20028;-66
2021/07/11 08:43:17;;;;;;;7.28;1.13;;;;;;;;;;5113627;28;20028;-67
2021/07/11 08:45:43;;;;;;;2.92;1.10;;;;;;;;;;5113593;28;20027;-65
2021/07/11 08:48:11;;;;;;;5.70;1.58;;;;;;;;;;5113313;28;20035;-68
2021/07/11 08:50:37;;;;;;;2.35;1.20;;;;;;;;;;5113470;28;20020;-66
2021/07/11 08:53:04;;;;;;;2.13;1.23;;;;;;;;;;5113557;28;20035;-68
2021/07/11 08:55:30;;;;;;;1.52;1.20;;;;;;;;;;5113529;28;20460;-68
2021/07/11 08:57:57;;;;;;;3.78;1.80;;;;;;;;;;5113593;28;20485;-67
2021/07/11 09:00:26;;;;;;;2.50;1.50;;;;;;;;;;5113560;28;20055;-69
2021/07/11 09:02:52;;;;;;;4.05;1.05;;;;;;;;;;5113565;28;20388;-68
2021/07/11 09:05:25;;;;;;;2.35;1.17;;;;;;;;;;5113587;28;20027;-67
2021/07/11 09:07:57;;;;;;;1.77;1.10;;;;;;;;;;5113467;28;20038;-69
2021/07/11 09:10:32;;;;;;;5.97;1.30;;;;;;;;;;5113357;28;20042;-67
2021/07/11 09:12:59;;;;;;;6.50;1.23;;;;;;;;;;5113163;28;20103;-68
2021/07/11 09:15:35;;;;;;;11.50;1.80;;;;;;;;;;5113354;28;20047;-68
2021/07/11 09:18:02;;;;;;;5.40;1.70;;;;;;;;;;5113465;28;20030;-69
2021/07/11 09:20:28;;;;;;;6.53;1.50;;;;;;;;;;5113390;28;20036;-69
2021/07/11 09:22:58;;;;;;;7.28;1.55;;;;;;;;;;5113263;28;20073;-68
2021/07/11 09:25:24;;;;;;;8.63;1.60;;;;;;;;;;5114420;28;20046;-68
2021/07/11 09:27:50;;;;;;;4.03;1.70;;;;;;;;;;5117227;28;20036;-68
2021/07/11 09:30:17;;;;;;;5.40;1.88;;;;;;;;;;5117388;28;20062;-67
2021/07/11 09:32:49;;;;;;;10.38;2.00;;;;;;;;;;5116884;28;20080;-68
2021/07/11 09:35:17;;;;;;;3.95;1.60;;;;;;;;;;5117128;28;20076;-68
2021/07/11 09:37:44;;;;;;;5.15;1.65;;;;;;;;;;5117012;28;20023;-67
2021/07/11 09:40:11;;;;;;;2.60;2.08;;;;;;;;;;5117038;28;20027;-68
2021/07/11 09:42:40;;;;;;;2.90;1.60;;;;;;;;;;5117237;28;20053;-68
2021/07/11 09:45:07;;;;;;;5.55;1.80;;;;;;;;;;5116942;28;20016;-68
2021/07/11 09:47:33;;;;;;;2.97;1.70;;;;;;;;;;5115840;28;20027;-69
2021/07/11 09:50:05;;;;;;;8.25;2.65;;;;;;;;;;5116185;28;20028;-69
2021/07/11 09:52:32;;;;;;;4.53;1.70;;;;;;;;;;5116535;28;20057;-69
2021/07/11 09:55:00;;;;;;;3.65;1.98;;;;;;;;;;5116543;28;20024;-68
2021/07/11 09:57:36;;;;;;;3.30;2.03;;;;;;;;;;5115054;28;20024;-68
2021/07/11 10:00:05;;;;;;;7.88;1.90;;;;;;;;;;5114269;28;20489;-69
2021/07/11 10:02:31;;;;;;;2.53;1.73;;;;;;;;;;5114277;28;20446;-68
2021/07/11 10:04:57;;;;;;;5.43;2.03;;;;;;;;;;5116285;28;20037;-68
2021/07/11 10:07:23;;;;;;;9.32;1.98;;;;;;;;;;5116771;28;20028;-68
2021/07/11 10:09:50;;;;;;;6.55;2.33;;;;;;;;;;5116792;28;20020;-68
2021/07/11 10:12:16;;;;;;;5.15;2.25;;;;;;;;;;5115293;28;20430;-68
2021/07/11 10:14:42;;;;;;;7.25;2.30;;;;;;;;;;5116600;28;20080;-68
2021/07/11 10:17:08;;;;;;;3.67;1.88;;;;;;;;;;5116310;28;20048;-68
2021/07/11 10:19:34;;;;;;;3.83;2.20;;;;;;;;;;5116902;27;20016;-67
2021/07/11 10:22:13;;;;;;;4.88;2.40;;;;;;;;;;5116759;28;20028;-68
2021/07/11 10:24:41;;;;;;;3.85;2.40;;;;;;;;;;5116586;28;20026;-68
2021/07/11 10:27:17;;;;;;;6.95;2.22;;;;;;;;;;5116274;28;20048;-69
2021/07/11 10:29:47;;;;;;;4.32;2.17;;;;;;;;;;5116157;28;20368;-68
2021/07/11 10:32:45;;;;;;;7.47;1.95;;;;;;;;;;5116379;28;20027;-68
2021/07/11 10:35:21;;;;;;;4.63;2.38;;;;;;;;;;5082398;28;20093;-68
2021/07/11 10:37:51;;;;;;;7.20;2.40;;;;;;;;;;5116006;27;20062;-68
2021/07/11 10:40:24;;;;;;;4.10;2.60;;;;;;;;;;5116386;28;20024;-68
2021/07/11 10:42:51;;;;;;;4.20;2.13;;;;;;;;;;5115943;28;20505;-68
2021/07/11 10:45:19;;;;;;;3.60;2.30;;;;;;;;;;5115986;28;20023;-68
2021/07/11 10:47:45;;;;;;;4.28;2.40;;;;;;;;;;5116205;28;20372;-68
2021/07/11 10:50:32;;;;;;;3.63;2.17;;;;;;;;;;5116069;27;20464;-68
2021/07/11 10:52:58;;;;;;;6.00;1.98;;;;;;;;;;5115543;27;20104;-67
2021/07/11 10:55:25;;;;;;;3.13;2.33;;;;;;;;;;5116042;28;20047;-67
2021/07/11 10:57:51;;;;;;;4.75;2.25;;;;;;;;;;5115884;28;20027;-67
2021/07/11 11:00:21;;;;;;;5.10;2.42;;;;;;;;;;5115952;28;20027;-66
2021/07/11 11:02:49;;;;;;;4.30;1.90;;;;;;;;;;5115672;27;20024;-66
2021/07/11 11:05:23;;;;;;;6.80;2.05;;;;;;;;;;5116072;28;20102;-66
2021/07/11 11:07:50;;;;;;;5.45;2.25;;;;;;;;;;5115536;28;20031;-66
2021/07/11 11:10:27;;;;;;;9.27;2.63;;;;;;;;;;5115554;28;20031;-66
2021/07/11 11:13:12;;;;;;;2.75;2.28;;;;;;;;;;5115259;28;20383;-66
2021/07/11 11:15:46;;;;;;;6.13;2.22;;;;;;;;;;5115316;28;20610;-66
2021/07/11 11:18:15;;;;;;;3.28;2.22;;;;;;;;;;5115282;28;20415;-66
2021/07/11 11:20:41;;;;;;;5.68;2.60;;;;;;;;;;5115325;28;20024;-66
2021/07/11 11:23:09;;;;;;;8.35;2.33;;;;;;;;;;5115274;28;20124;-66
2021/07/11 11:25:35;;;;;;;6.20;2.10;;;;;;;;;;5114957;28;20024;-66
2021/07/11 11:28:01;;;;;;;6.40;2.17;;;;;;;;;;5115328;28;20066;-67
2021/07/11 11:30:27;;;;;;;3.95;2.13;;;;;;;;;;5115174;28;20059;-66
2021/07/11 11:33:00;;;;;;;4.18;2.40;;;;;;;;;;5115131;28;20023;-66
2021/07/11 11:35:27;;;;;;;3.25;2.28;;;;;;;;;;5115170;28;20036;-66
2021/07/11 11:37:56;;;;;;;3.03;2.38;;;;;;;;;;5115135;28;20514;-66
2021/07/11 11:40:23;;;;;;;4.50;2.42;;;;;;;;;;5114873;28;20068;-66
2021/07/11 11:42:51;;;;;;;6.20;2.30;;;;;;;;;;5114782;28;20032;-66
2021/07/11 11:45:19;;;;;;;6.28;2.20;;;;;;;;;;5115000;28;20379;-66
2021/07/11 11:47:45;;;;;;;6.40;2.20;;;;;;;;;;5114425;28;20023;-66
2021/07/11 11:50:11;;;;;;;4.07;2.30;;;;;;;;;;5114842;28;20035;-66
2021/07/11 11:52:38;;;;;;;6.28;2.88;;;;;;;;;;5114595;28;20027;-66
2021/07/11 11:55:04;;;;;;;3.00;2.30;;;;;;;;;;5114763;28;20063;-67
2021/07/11 11:57:32;;;;;;;4.88;2.13;;;;;;;;;;5114759;28;20027;-66
2021/07/11 11:59:58;;;;;;;3.47;2.10;;;;;;;;;;5114895;28;20425;-67
2021/07/11 12:02:24;;;;;;;4.15;2.20;;;;;;;;;;5114464;28;20098;-66
2021/07/11 12:04:50;;;;;;;2.85;2.08;;;;;;;;;;5113154;28;20108;-66
2021/07/11 12:07:16;;;;;;;6.75;2.25;;;;;;;;;;5114617;28;20031;-66
2021/07/11 12:09:43;;;;;;;5.63;2.20;;;;;;;;;;5114430;27;20118;-66
2021/07/11 12:12:10;;;;;;;5.55;2.00;;;;;;;;;;5114379;28;20496;-66
2021/07/11 12:14:37;;;;;;;3.05;1.88;;;;;;;;;;5113926;28;20081;-66
2021/07/11 12:17:04;;;;;;;5.55;2.30;;;;;;;;;;5114755;28;20336;-66
2021/07/11 12:19:41;;;;;;;4.22;2.60;;;;;;;;;;5114149;28;20035;-66
2021/07/11 12:22:07;;;;;;;3.00;2.30;;;;;;;;;;5114333;28;20019;-66
2021/07/11 12:24:33;;;;;;;3.40;2.55;;;;;;;;;;5114054;28;20035;-66
2021/07/11 12:27:03;;;;;;;5.03;2.30;;;;;;;;;;5114353;28;20031;-66
2021/07/11 12:29:30;;;;;;;3.20;2.20;;;;;;;;;;5113978;28;20424;-66
2021/07/11 12:32:00;;;;;;;7.30;2.55;;;;;;;;;;5114112;28;20027;-66
2021/07/11 12:34:35;;;;;;;7.20;1.98;;;;;;;;;;5113944;28;20441;-66
2021/07/11 12:37:04;;;;;;;6.53;2.45;;;;;;;;;;5113765;28;20026;-66
2021/07/11 12:39:31;;;;;;;7.18;2.38;;;;;;;;;;5113905;28;20058;-66
2021/07/11 12:41:57;;;;;;;3.20;2.10;;;;;;;;;;5114181;28;20491;-67
2021/07/11 12:44:32;;;;;;;3.85;2.10;;;;;;;;;;5113860;28;20527;-66
2021/07/11 12:47:10;;;;;;;5.93;2.25;;;;;;;;;;5113813;28;20031;-66
2021/07/11 12:49:36;;;;;;;2.55;2.28;;;;;;;;;;5113552;28;20098;-66
2021/07/11 12:52:08;;;;;;;4.72;2.40;;;;;;;;;;5113797;28;20023;-66
2021/07/11 12:54:35;;;;;;;9.27;2.65;;;;;;;;;;5113652;28;20055;-67
2021/07/11 12:57:03;;;;;;;3.38;1.95;;;;;;;;;;5113692;28;20020;-66
2021/07/11 12:59:35;;;;;;;5.40;1.88;;;;;;;;;;5112834;28;20483;-66
2021/07/11 13:02:08;;;;;;;3.53;1.95;;;;;;;;;;5113542;28;20023;-68
2021/07/11 13:04:35;;;;;;;5.05;2.13;;;;;;;;;;5113469;28;20468;-66
2021/07/11 13:07:12;;;;;;;4.85;1.80;;;;;;;;;;5113620;28;20034;-67
2021/07/11 13:09:40;;;;;;;4.40;1.92;;;;;;;;;;5113534;28;20027;-67
2021/07/11 13:12:06;;;;;;;3.10;2.10;;;;;;;;;;5113659;28;20035;-66
2021/07/11 13:14:34;;;;;;;4.88;2.08;;;;;;;;;;5113509;28;20060;-66
2021/07/11 13:17:00;;;;;;;4.18;1.90;;;;;;;;;;5113356;28;20043;-66
2021/07/11 13:19:26;;;;;;;5.43;2.20;;;;;;;;;;5113549;28;20028;-66
2021/07/11 13:21:52;;;;;;;3.15;2.28;;;;;;;;;;5113605;28;20379;-66
2021/07/11 13:24:18;;;;;;;7.47;2.08;;;;;;;;;;5113221;28;20110;-66
2021/07/11 13:26:44;;;;;;;3.33;2.20;;;;;;;;;;5113503;28;20028;-66
2021/07/11 13:29:10;;;;;;;8.18;2.35;;;;;;;;;;5113663;28;20480;-67
2021/07/11 13:31:37;;;;;;;6.40;2.40;;;;;;;;;;5113380;28;20036;-67
2021/07/11 13:34:03;;;;;;;2.58;2.03;;;;;;;;;;5113045;28;20562;-66
2021/07/11 13:36:29;;;;;;;5.93;2.15;;;;;;;;;;5113517;28;20526;-66
2021/07/11 13:38:55;;;;;;;2.50;1.90;;;;;;;;;;5113297;28;20032;-66
2021/07/11 13:41:21;;;;;;;10.55;1.80;;;;;;;;;;5113223;28;20100;-66
2021/07/11 13:43:47;;;;;;;5.47;2.10;;;;;;;;;;5113485;28;20361;-66
2021/07/11 13:46:15;;;;;;;3.08;1.83;;;;;;;;;;5113411;28;20027;-66
2021/07/11 13:48:41;;;;;;;3.17;2.05;;;;;;;;;;5113310;28;20027;-66
2021/07/11 13:51:12;;;;;;;5.05;2.22;;;;;;;;;;5113489;28;20024;-66
2021/07/11 13:53:38;;;;;;;;;;;;;;;;;;5113371;28;20036;-66
2021/07/11 13:56:05;;;;;;;4.28;2.15;;;;;;;;;;5113114;28;19910;-66
2021/07/11 13:58:31;;;;;;;5.75;2.30;;;;;;;;;;5113180;28;20069;-66
2021/07/11 14:00:57;;;;;;;2.85;2.17;;;;;;;;;;5113119;28;20484;-66
2021/07/11 14:03:25;;;;;;;6.40;2.05;;;;;;;;;;5113123;28;20031;-66
2021/07/11 14:05:51;;;;;;;2.90;1.80;;;;;;;;;;5112992;28;20024;-66
2021/07/11 14:08:20;;;;;;;3.15;1.98;;;;;;;;;;5112825;28;20120;-67
2021/07/11 14:10:46;;;;;;;4.43;2.03;;;;;;;;;;5112429;28;20476;-66
2021/07/11 14:13:15;;;;;;;5.28;2.25;;;;;;;;;;5115373;28;20020;-66
2021/07/11 14:15:41;;;;;;;3.20;2.03;;;28.20;45.90;;;;;;5113320;28;20126;-67
2021/07/11 14:18:12;;;;;;;4.93;2.25;;;32.40;40.40;;;;;;5112137;28;20115;-66
2021/07/11 14:20:38;;;;;;;;;;;32.30;40.40;;;;;;5115305;28;20039;-66
2021/07/11 14:23:03;;;;;;;8.10;2.33;;;32.30;40.30;;;;;;5116126;28;19904;-67